Decoded Metar for KMYJ ( in ) (IATA:) | Meteo·Mobile Aviation Weather
aviador You're here:

KMYJ Decoded Metar

in
Report Time2019-10-21 00:35:00
UTC Time2019-10-21 00:12:03
Flight Rules vfr VFR
Wind100° at 07 kt
W.Decomp.*RWY 06: 5.4 kt HW 4.5 kt RCW
RWY 18: 1.2 kt HW 6.9 kt LCW
Visibility9999 m
Phenomena:N/A
Clouds:Overcast 043 Hf
Expected CloudBase > 1,600 ft AGL from Temp-Dew spread
Ceiling4,300 ft
Temp15°C
Dew Point11°C (77% RH)
AAT12.8°C
QNH1008 hPa
Raw Report
KMYJ 210035Z AUTO 10007KT 10SM OVC043 15/11 A2978 RMK AO2=

Extra information for KMYJ:More info

Social comments